sensor_id;sensor_type;location;lat;lon;timestamp;P1;durP1;ratioP1;P2;durP2;ratioP2
15228;SDS011;7717;47.792;12.076;2023-04-29T00:00:42;0.40;;;0.40;;
15228;SDS011;7717;47.792;12.076;2023-04-29T00:03:07;0.50;;;0.50;;
15228;SDS011;7717;47.792;12.076;2023-04-29T00:05:33;0.50;;;0.50;;
15228;SDS011;7717;47.792;12.076;2023-04-29T00:07:58;1.60;;;0.93;;
15228;SDS011;7717;47.792;12.076;2023-04-29T00:10:23;1.33;;;1.20;;
15228;SDS011;7717;47.792;12.076;2023-04-29T00:12:49;0.77;;;0.67;;
15228;SDS011;7717;47.792;12.076;2023-04-29T00:15:15;1.67;;;0.80;;
15228;SDS011;7717;47.792;12.076;2023-04-29T00:17:40;0.90;;;0.90;;
15228;SDS011;7717;47.792;12.076;2023-04-29T00:20:06;0.70;;;0.70;;
15228;SDS011;7717;47.792;12.076;2023-04-29T00:22:32;0.77;;;0.70;;
15228;SDS011;7717;47.792;12.076;2023-04-29T00:24:57;0.73;;;0.70;;
15228;SDS011;7717;47.792;12.076;2023-04-29T00:27:22;1.07;;;0.73;;
15228;SDS011;7717;47.792;12.076;2023-04-29T00:29:47;0.93;;;0.83;;
15228;SDS011;7717;47.792;12.076;2023-04-29T00:35:16;1.27;;;0.60;;
15228;SDS011;7717;47.792;12.076;2023-04-29T00:37:41;1.37;;;0.70;;
15228;SDS011;7717;47.792;12.076;2023-04-29T00:40:06;1.87;;;0.70;;
15228;SDS011;7717;47.792;12.076;2023-04-29T00:42:33;1.80;;;1.00;;
15228;SDS011;7717;47.792;12.076;2023-04-29T00:44:58;0.70;;;0.70;;
15228;SDS011;7717;47.792;12.076;2023-04-29T00:47:23;0.90;;;0.90;;
15228;SDS011;7717;47.792;12.076;2023-04-29T00:49:48;0.93;;;0.70;;
15228;SDS011;7717;47.792;12.076;2023-04-29T00:52:14;0.57;;;0.50;;
15228;SDS011;7717;47.792;12.076;2023-04-29T00:54:40;0.70;;;0.53;;
15228;SDS011;7717;47.792;12.076;2023-04-29T00:57:05;0.73;;;0.73;;
15228;SDS011;7717;47.792;12.076;2023-04-29T00:59:31;0.93;;;0.60;;
15228;SDS011;7717;47.792;12.076;2023-04-29T01:02:00;0.70;;;0.70;;
15228;SDS011;7717;47.792;12.076;2023-04-29T01:04:27;0.83;;;0.70;;
15228;SDS011;7717;47.792;12.076;2023-04-29T01:12:03;0.60;;;0.60;;
15228;SDS011;7717;47.792;12.076;2023-04-29T01:14:30;0.50;;;0.50;;
15228;SDS011;7717;47.792;12.076;2023-04-29T01:16:58;0.60;;;0.60;;
15228;SDS011;7717;47.792;12.076;2023-04-29T01:19:33;0.60;;;0.60;;
15228;SDS011;7717;47.792;12.076;2023-04-29T01:21:59;0.50;;;0.50;;
15228;SDS011;7717;47.792;12.076;2023-04-29T01:24:25;0.60;;;0.60;;
15228;SDS011;7717;47.792;12.076;2023-04-29T01:26:53;0.70;;;0.70;;
15228;SDS011;7717;47.792;12.076;2023-04-29T01:32:04;0.70;;;0.70;;
15228;SDS011;7717;47.792;12.076;2023-04-29T01:34:30;0.60;;;0.60;;
15228;SDS011;7717;47.792;12.076;2023-04-29T01:37:14;0.77;;;0.70;;
15228;SDS011;7717;47.792;12.076;2023-04-29T01:39:55;1.90;;;0.70;;
15228;SDS011;7717;47.792;12.076;2023-04-29T01:42:23;1.33;;;0.67;;
15228;SDS011;7717;47.792;12.076;2023-04-29T01:44:50;0.60;;;0.60;;
15228;SDS011;7717;47.792;12.076;2023-04-29T01:47:17;1.30;;;0.80;;
15228;SDS011;7717;47.792;12.076;2023-04-29T01:49:42;0.80;;;0.80;;
15228;SDS011;7717;47.792;12.076;2023-04-29T01:52:10;0.73;;;0.73;;
15228;SDS011;7717;47.792;12.076;2023-04-29T01:54:36;0.60;;;0.60;;
15228;SDS011;7717;47.792;12.076;2023-04-29T01:57:02;1.83;;;0.70;;
15228;SDS011;7717;47.792;12.076;2023-04-29T01:59:28;0.70;;;0.70;;
15228;SDS011;7717;47.792;12.076;2023-04-29T02:01:53;0.70;;;0.70;;
15228;SDS011;7717;47.792;12.076;2023-04-29T02:04:20;0.70;;;0.60;;
15228;SDS011;7717;47.792;12.076;2023-04-29T02:06:45;0.50;;;0.50;;
15228;SDS011;7717;47.792;12.076;2023-04-29T02:09:10;0.60;;;0.60;;
15228;SDS011;7717;47.792;12.076;2023-04-29T02:11:36;0.70;;;0.60;;
15228;SDS011;7717;47.792;12.076;2023-04-29T02:14:01;0.60;;;0.60;;
15228;SDS011;7717;47.792;12.076;2023-04-29T02:16:26;0.70;;;0.70;;
15228;SDS011;7717;47.792;12.076;2023-04-29T02:18:51;0.70;;;0.70;;
15228;SDS011;7717;47.792;12.076;2023-04-29T02:21:17;0.50;;;0.50;;
15228;SDS011;7717;47.792;12.076;2023-04-29T02:23:42;0.80;;;0.80;;
15228;SDS011;7717;47.792;12.076;2023-04-29T02:26:07;0.83;;;0.60;;
15228;SDS011;7717;47.792;12.076;2023-04-29T02:28:33;0.70;;;0.70;;
15228;SDS011;7717;47.792;12.076;2023-04-29T02:30:59;0.80;;;0.80;;
15228;SDS011;7717;47.792;12.076;2023-04-29T02:33:24;0.70;;;0.70;;
15228;SDS011;7717;47.792;12.076;2023-04-29T02:35:49;1.50;;;0.80;;
15228;SDS011;7717;47.792;12.076;2023-04-29T02:38:14;1.10;;;1.10;;
15228;SDS011;7717;47.792;12.076;2023-04-29T02:40:43;0.97;;;0.90;;
15228;SDS011;7717;47.792;12.076;2023-04-29T02:43:08;0.93;;;0.93;;
15228;SDS011;7717;47.792;12.076;2023-04-29T02:45:34;0.93;;;0.93;;
15228;SDS011;7717;47.792;12.076;2023-04-29T02:47:59;2.10;;;0.93;;
15228;SDS011;7717;47.792;12.076;2023-04-29T02:50:24;1.30;;;1.00;;
15228;SDS011;7717;47.792;12.076;2023-04-29T02:52:50;1.57;;;1.13;;
15228;SDS011;7717;47.792;12.076;2023-04-29T02:55:15;1.17;;;1.00;;
15228;SDS011;7717;47.792;12.076;2023-04-29T02:57:41;1.33;;;1.27;;
15228;SDS011;7717;47.792;12.076;2023-04-29T03:00:07;0.80;;;0.80;;
15228;SDS011;7717;47.792;12.076;2023-04-29T03:02:33;1.20;;;1.20;;
15228;SDS011;7717;47.792;12.076;2023-04-29T03:04:58;1.07;;;1.00;;
15228;SDS011;7717;47.792;12.076;2023-04-29T03:07:23;1.00;;;1.00;;
15228;SDS011;7717;47.792;12.076;2023-04-29T03:09:48;2.40;;;1.20;;
15228;SDS011;7717;47.792;12.076;2023-04-29T03:12:14;1.50;;;1.40;;
15228;SDS011;7717;47.792;12.076;2023-04-29T03:14:43;1.50;;;1.40;;
15228;SDS011;7717;47.792;12.076;2023-04-29T03:17:08;1.37;;;1.30;;
15228;SDS011;7717;47.792;12.076;2023-04-29T03:19:33;1.60;;;1.50;;
15228;SDS011;7717;47.792;12.076;2023-04-29T03:21:59;1.40;;;1.30;;
15228;SDS011;7717;47.792;12.076;2023-04-29T03:24:24;1.40;;;1.30;;
15228;SDS011;7717;47.792;12.076;2023-04-29T03:26:50;1.60;;;1.50;;
15228;SDS011;7717;47.792;12.076;2023-04-29T03:29:15;2.03;;;1.83;;
15228;SDS011;7717;47.792;12.076;2023-04-29T03:31:40;1.57;;;1.47;;
15228;SDS011;7717;47.792;12.076;2023-04-29T03:34:05;2.17;;;1.83;;
15228;SDS011;7717;47.792;12.076;2023-04-29T03:36:31;2.20;;;2.00;;
15228;SDS011;7717;47.792;12.076;2023-04-29T03:38:56;2.30;;;1.83;;
15228;SDS011;7717;47.792;12.076;2023-04-29T03:41:21;1.93;;;1.63;;
15228;SDS011;7717;47.792;12.076;2023-04-29T03:43:48;1.33;;;1.23;;
15228;SDS011;7717;47.792;12.076;2023-04-29T03:46:13;1.63;;;1.53;;
15228;SDS011;7717;47.792;12.076;2023-04-29T03:48:39;2.50;;;1.60;;
15228;SDS011;7717;47.792;12.076;2023-04-29T03:51:04;1.73;;;1.63;;
15228;SDS011;7717;47.792;12.076;2023-04-29T03:53:30;1.83;;;1.73;;
15228;SDS011;7717;47.792;12.076;2023-04-29T03:55:57;1.90;;;1.67;;
15228;SDS011;7717;47.792;12.076;2023-04-29T03:58:22;1.70;;;1.60;;
15228;SDS011;7717;47.792;12.076;2023-04-29T04:00:47;1.67;;;1.57;;
15228;SDS011;7717;47.792;12.076;2023-04-29T04:03:13;1.87;;;1.73;;
15228;SDS011;7717;47.792;12.076;2023-04-29T04:05:38;2.20;;;2.00;;
15228;SDS011;7717;47.792;12.076;2023-04-29T04:08:03;1.93;;;1.80;;
15228;SDS011;7717;47.792;12.076;2023-04-29T04:10:28;2.07;;;1.87;;
15228;SDS011;7717;47.792;12.076;2023-04-29T04:12:54;1.60;;;1.50;;
15228;SDS011;7717;47.792;12.076;2023-04-29T04:15:22;2.03;;;1.80;;
15228;SDS011;7717;47.792;12.076;2023-04-29T04:17:47;1.60;;;1.50;;
15228;SDS011;7717;47.792;12.076;2023-04-29T04:20:13;1.60;;;1.50;;
15228;SDS011;7717;47.792;12.076;2023-04-29T04:22:38;1.67;;;1.43;;
15228;SDS011;7717;47.792;12.076;2023-04-29T04:25:03;1.93;;;1.73;;
15228;SDS011;7717;47.792;12.076;2023-04-29T04:27:29;3.07;;;1.90;;
15228;SDS011;7717;47.792;12.076;2023-04-29T04:29:54;4.20;;;1.57;;
15228;SDS011;7717;47.792;12.076;2023-04-29T04:32:20;1.80;;;1.50;;
15228;SDS011;7717;47.792;12.076;2023-04-29T04:34:46;1.83;;;1.73;;
15228;SDS011;7717;47.792;12.076;2023-04-29T04:37:12;1.63;;;1.50;;
15228;SDS011;7717;47.792;12.076;2023-04-29T04:39:38;1.40;;;1.30;;
15228;SDS011;7717;47.792;12.076;2023-04-29T04:42:03;1.47;;;1.37;;
15228;SDS011;7717;47.792;12.076;2023-04-29T04:44:29;1.10;;;1.10;;
15228;SDS011;7717;47.792;12.076;2023-04-29T04:46:55;1.27;;;1.20;;
15228;SDS011;7717;47.792;12.076;2023-04-29T04:49:21;1.27;;;1.10;;
15228;SDS011;7717;47.792;12.076;2023-04-29T04:51:48;1.20;;;1.10;;
15228;SDS011;7717;47.792;12.076;2023-04-29T04:54:14;1.60;;;1.40;;
15228;SDS011;7717;47.792;12.076;2023-04-29T04:56:39;1.10;;;1.00;;
15228;SDS011;7717;47.792;12.076;2023-04-29T04:59:04;1.50;;;1.40;;
15228;SDS011;7717;47.792;12.076;2023-04-29T05:01:29;1.10;;;1.10;;
15228;SDS011;7717;47.792;12.076;2023-04-29T05:03:55;1.33;;;1.23;;
15228;SDS011;7717;47.792;12.076;2023-04-29T05:06:21;1.70;;;1.60;;
15228;SDS011;7717;47.792;12.076;2023-04-29T05:08:46;1.50;;;1.40;;
15228;SDS011;7717;47.792;12.076;2023-04-29T05:11:15;1.33;;;1.23;;
15228;SDS011;7717;47.792;12.076;2023-04-29T05:13:41;1.20;;;1.20;;
15228;SDS011;7717;47.792;12.076;2023-04-29T05:16:06;1.70;;;1.60;;
15228;SDS011;7717;47.792;12.076;2023-04-29T05:18:32;2.33;;;1.53;;
15228;SDS011;7717;47.792;12.076;2023-04-29T05:20:57;1.30;;;1.20;;
15228;SDS011;7717;47.792;12.076;2023-04-29T05:23:24;2.20;;;1.20;;
15228;SDS011;7717;47.792;12.076;2023-04-29T05:25:49;1.97;;;1.87;;
15228;SDS011;7717;47.792;12.076;2023-04-29T05:28:14;1.93;;;1.73;;
15228;SDS011;7717;47.792;12.076;2023-04-29T05:30:40;1.97;;;1.77;;
15228;SDS011;7717;47.792;12.076;2023-04-29T05:33:05;2.10;;;1.90;;
15228;SDS011;7717;47.792;12.076;2023-04-29T05:35:30;2.37;;;2.00;;
15228;SDS011;7717;47.792;12.076;2023-04-29T05:37:56;2.20;;;1.60;;
15228;SDS011;7717;47.792;12.076;2023-04-29T05:40:21;1.40;;;1.30;;
15228;SDS011;7717;47.792;12.076;2023-04-29T05:42:47;3.53;;;3.23;;
15228;SDS011;7717;47.792;12.076;2023-04-29T05:45:13;2.60;;;2.40;;
15228;SDS011;7717;47.792;12.076;2023-04-29T05:47:38;4.17;;;1.90;;
15228;SDS011;7717;47.792;12.076;2023-04-29T05:50:03;1.13;;;1.13;;
15228;SDS011;7717;47.792;12.076;2023-04-29T05:52:29;4.07;;;3.53;;
15228;SDS011;7717;47.792;12.076;2023-04-29T05:54:54;1.97;;;1.80;;
15228;SDS011;7717;47.792;12.076;2023-04-29T05:57:19;1.70;;;1.60;;
15228;SDS011;7717;47.792;12.076;2023-04-29T05:59:45;1.93;;;1.83;;
15228;SDS011;7717;47.792;12.076;2023-04-29T06:02:10;1.50;;;1.40;;
15228;SDS011;7717;47.792;12.076;2023-04-29T06:04:36;1.87;;;1.30;;
15228;SDS011;7717;47.792;12.076;2023-04-29T06:07:01;1.60;;;1.50;;
15228;SDS011;7717;47.792;12.076;2023-04-29T06:09:29;1.10;;;1.10;;
15228;SDS011;7717;47.792;12.076;2023-04-29T06:11:54;1.20;;;1.10;;
15228;SDS011;7717;47.792;12.076;2023-04-29T06:14:20;0.80;;;0.80;;
15228;SDS011;7717;47.792;12.076;2023-04-29T06:16:45;1.40;;;1.30;;
15228;SDS011;7717;47.792;12.076;2023-04-29T06:19:10;1.23;;;1.17;;
15228;SDS011;7717;47.792;12.076;2023-04-29T06:21:36;1.70;;;1.30;;
15228;SDS011;7717;47.792;12.076;2023-04-29T06:24:01;1.67;;;1.50;;
15228;SDS011;7717;47.792;12.076;2023-04-29T06:26:27;2.03;;;1.30;;
15228;SDS011;7717;47.792;12.076;2023-04-29T06:28:52;1.50;;;1.40;;
15228;SDS011;7717;47.792;12.076;2023-04-29T06:31:18;2.30;;;1.40;;
15228;SDS011;7717;47.792;12.076;2023-04-29T06:33:44;2.20;;;1.43;;
15228;SDS011;7717;47.792;12.076;2023-04-29T06:36:10;1.20;;;1.10;;
15228;SDS011;7717;47.792;12.076;2023-04-29T06:38:36;2.67;;;1.17;;
15228;SDS011;7717;47.792;12.076;2023-04-29T06:41:01;1.93;;;1.33;;
15228;SDS011;7717;47.792;12.076;2023-04-29T06:43:27;1.43;;;1.30;;
15228;SDS011;7717;47.792;12.076;2023-04-29T06:45:52;1.63;;;1.53;;
15228;SDS011;7717;47.792;12.076;2023-04-29T06:48:17;1.10;;;1.10;;
15228;SDS011;7717;47.792;12.076;2023-04-29T06:50:53;1.40;;;1.30;;
15228;SDS011;7717;47.792;12.076;2023-04-29T06:53:18;1.23;;;1.13;;
15228;SDS011;7717;47.792;12.076;2023-04-29T06:55:44;2.13;;;1.13;;
15228;SDS011;7717;47.792;12.076;2023-04-29T06:58:11;1.67;;;1.57;;
15228;SDS011;7717;47.792;12.076;2023-04-29T07:00:36;2.33;;;1.47;;
15228;SDS011;7717;47.792;12.076;2023-04-29T07:03:02;1.93;;;1.60;;
15228;SDS011;7717;47.792;12.076;2023-04-29T07:05:27;2.37;;;1.60;;
15228;SDS011;7717;47.792;12.076;2023-04-29T07:07:53;1.50;;;1.40;;
15228;SDS011;7717;47.792;12.076;2023-04-29T07:10:18;3.13;;;1.47;;
15228;SDS011;7717;47.792;12.076;2023-04-29T07:12:43;1.47;;;1.37;;
15228;SDS011;7717;47.792;12.076;2023-04-29T07:15:09;1.83;;;1.63;;
15228;SDS011;7717;47.792;12.076;2023-04-29T07:17:34;1.63;;;1.43;;
15228;SDS011;7717;47.792;12.076;2023-04-29T07:19:59;1.80;;;1.57;;
15228;SDS011;7717;47.792;12.076;2023-04-29T07:22:25;1.40;;;1.30;;
15228;SDS011;7717;47.792;12.076;2023-04-29T07:24:53;1.33;;;1.33;;
15228;SDS011;7717;47.792;12.076;2023-04-29T07:27:19;2.03;;;1.83;;
15228;SDS011;7717;47.792;12.076;2023-04-29T07:29:45;2.00;;;1.90;;
15228;SDS011;7717;47.792;12.076;2023-04-29T07:32:10;1.57;;;1.47;;
15228;SDS011;7717;47.792;12.076;2023-04-29T07:34:36;1.93;;;1.83;;
15228;SDS011;7717;47.792;12.076;2023-04-29T07:37:01;2.47;;;2.10;;
15228;SDS011;7717;47.792;12.076;2023-04-29T07:39:26;2.07;;;1.97;;
15228;SDS011;7717;47.792;12.076;2023-04-29T07:41:53;2.47;;;2.27;;
15228;SDS011;7717;47.792;12.076;2023-04-29T07:44:18;3.67;;;2.27;;
15228;SDS011;7717;47.792;12.076;2023-04-29T07:46:43;1.60;;;1.50;;
15228;SDS011;7717;47.792;12.076;2023-04-29T07:49:08;1.80;;;1.60;;
15228;SDS011;7717;47.792;12.076;2023-04-29T07:51:34;2.07;;;1.97;;
15228;SDS011;7717;47.792;12.076;2023-04-29T07:53:59;1.77;;;1.37;;
15228;SDS011;7717;47.792;12.076;2023-04-29T07:56:25;2.17;;;1.57;;
15228;SDS011;7717;47.792;12.076;2023-04-29T07:58:50;1.70;;;1.60;;
15228;SDS011;7717;47.792;12.076;2023-04-29T08:01:15;1.70;;;1.53;;
15228;SDS011;7717;47.792;12.076;2023-04-29T08:03:40;1.73;;;1.50;;
15228;SDS011;7717;47.792;12.076;2023-04-29T08:06:06;1.67;;;1.50;;
15228;SDS011;7717;47.792;12.076;2023-04-29T08:08:31;1.70;;;1.13;;
15228;SDS011;7717;47.792;12.076;2023-04-29T08:10:56;1.73;;;1.50;;
15228;SDS011;7717;47.792;12.076;2023-04-29T08:13:21;1.60;;;1.50;;
15228;SDS011;7717;47.792;12.076;2023-04-29T08:15:47;2.00;;;1.70;;
15228;SDS011;7717;47.792;12.076;2023-04-29T08:18:12;1.40;;;1.30;;
15228;SDS011;7717;47.792;12.076;2023-04-29T08:20:37;2.03;;;1.20;;
15228;SDS011;7717;47.792;12.076;2023-04-29T08:23:03;2.37;;;1.70;;
15228;SDS011;7717;47.792;12.076;2023-04-29T08:25:28;1.90;;;1.00;;
15228;SDS011;7717;47.792;12.076;2023-04-29T08:27:54;1.13;;;1.03;;
15228;SDS011;7717;47.792;12.076;2023-04-29T08:30:19;1.20;;;1.03;;
15228;SDS011;7717;47.792;12.076;2023-04-29T08:32:44;1.20;;;1.10;;
15228;SDS011;7717;47.792;12.076;2023-04-29T08:35:10;0.73;;;0.70;;
15228;SDS011;7717;47.792;12.076;2023-04-29T08:37:35;0.70;;;0.70;;
15228;SDS011;7717;47.792;12.076;2023-04-29T08:40:01;1.30;;;1.20;;
15228;SDS011;7717;47.792;12.076;2023-04-29T08:42:31;1.17;;;1.00;;
15228;SDS011;7717;47.792;12.076;2023-04-29T08:44:57;0.80;;;0.80;;
15228;SDS011;7717;47.792;12.076;2023-04-29T08:47:24;1.73;;;0.70;;
15228;SDS011;7717;47.792;12.076;2023-04-29T08:49:49;1.27;;;1.00;;
15228;SDS011;7717;47.792;12.076;2023-04-29T08:52:14;0.93;;;0.93;;
15228;SDS011;7717;47.792;12.076;2023-04-29T08:54:39;1.00;;;0.70;;
15228;SDS011;7717;47.792;12.076;2023-04-29T08:57:05;2.57;;;1.10;;
15228;SDS011;7717;47.792;12.076;2023-04-29T08:59:31;1.30;;;1.10;;
15228;SDS011;7717;47.792;12.076;2023-04-29T09:01:56;2.27;;;1.10;;
15228;SDS011;7717;47.792;12.076;2023-04-29T09:04:29;0.90;;;0.80;;
15228;SDS011;7717;47.792;12.076;2023-04-29T09:06:55;0.90;;;0.90;;
15228;SDS011;7717;47.792;12.076;2023-04-29T09:09:22;0.83;;;0.83;;
15228;SDS011;7717;47.792;12.076;2023-04-29T09:11:48;0.70;;;0.70;;
15228;SDS011;7717;47.792;12.076;2023-04-29T09:14:13;1.93;;;0.90;;
15228;SDS011;7717;47.792;12.076;2023-04-29T09:16:39;0.83;;;0.70;;
15228;SDS011;7717;47.792;12.076;2023-04-29T09:19:04;2.40;;;0.90;;
15228;SDS011;7717;47.792;12.076;2023-04-29T09:21:30;1.60;;;1.10;;
15228;SDS011;7717;47.792;12.076;2023-04-29T09:23:59;1.70;;;0.80;;
15228;SDS011;7717;47.792;12.076;2023-04-29T09:26:25;1.27;;;1.03;;
15228;SDS011;7717;47.792;12.076;2023-04-29T09:29:06;1.17;;;1.07;;
15228;SDS011;7717;47.792;12.076;2023-04-29T09:31:33;1.37;;;0.80;;
15228;SDS011;7717;47.792;12.076;2023-04-29T09:33:59;1.53;;;1.00;;
15228;SDS011;7717;47.792;12.076;2023-04-29T09:36:34;0.90;;;0.90;;
15228;SDS011;7717;47.792;12.076;2023-04-29T09:38:59;0.70;;;0.70;;
15228;SDS011;7717;47.792;12.076;2023-04-29T09:41:25;0.73;;;0.73;;
15228;SDS011;7717;47.792;12.076;2023-04-29T09:44:03;1.10;;;1.00;;
15228;SDS011;7717;47.792;12.076;2023-04-29T09:46:29;0.97;;;0.80;;
15228;SDS011;7717;47.792;12.076;2023-04-29T09:48:54;1.17;;;0.83;;
15228;SDS011;7717;47.792;12.076;2023-04-29T09:51:21;1.00;;;0.90;;
15228;SDS011;7717;47.792;12.076;2023-04-29T09:53:46;3.00;;;1.87;;
15228;SDS011;7717;47.792;12.076;2023-04-29T09:56:12;0.80;;;0.80;;
15228;SDS011;7717;47.792;12.076;2023-04-29T09:58:37;1.20;;;1.10;;
15228;SDS011;7717;47.792;12.076;2023-04-29T10:01:03;2.07;;;0.80;;
15228;SDS011;7717;47.792;12.076;2023-04-29T10:03:32;1.67;;;1.57;;
15228;SDS011;7717;47.792;12.076;2023-04-29T10:05:58;1.17;;;0.80;;
15228;SDS011;7717;47.792;12.076;2023-04-29T10:08:24;1.48;;;1.00;;
15228;SDS011;7717;47.792;12.076;2023-04-29T10:10:51;1.58;;;0.73;;
15228;SDS011;7717;47.792;12.076;2023-04-29T10:13:22;1.10;;;0.90;;
15228;SDS011;7717;47.792;12.076;2023-04-29T10:15:48;0.85;;;0.85;;
15228;SDS011;7717;47.792;12.076;2023-04-29T10:18:20;0.80;;;0.80;;
15228;SDS011;7717;47.792;12.076;2023-04-29T10:20:45;1.17;;;0.85;;
15228;SDS011;7717;47.792;12.076;2023-04-29T10:23:12;1.40;;;0.63;;
15228;SDS011;7717;47.792;12.076;2023-04-29T10:25:37;0.70;;;0.70;;
15228;SDS011;7717;47.792;12.076;2023-04-29T10:28:03;0.70;;;0.70;;
15228;SDS011;7717;47.792;12.076;2023-04-29T10:30:29;0.80;;;0.80;;
15228;SDS011;7717;47.792;12.076;2023-04-29T10:32:55;1.65;;;0.98;;
15228;SDS011;7717;47.792;12.076;2023-04-29T10:35:23;0.70;;;0.70;;
15228;SDS011;7717;47.792;12.076;2023-04-29T10:37:49;0.70;;;0.70;;
15228;SDS011;7717;47.792;12.076;2023-04-29T10:42:45;0.68;;;0.68;;
15228;SDS011;7717;47.792;12.076;2023-04-29T10:45:21;0.63;;;0.63;;
15228;SDS011;7717;47.792;12.076;2023-04-29T10:50:33;1.33;;;0.80;;
15228;SDS011;7717;47.792;12.076;2023-04-29T10:53:02;0.87;;;0.80;;
15228;SDS011;7717;47.792;12.076;2023-04-29T10:55:27;0.73;;;0.60;;
15228;SDS011;7717;47.792;12.076;2023-04-29T10:57:53;0.80;;;0.60;;
15228;SDS011;7717;47.792;12.076;2023-04-29T11:00:28;1.77;;;0.80;;
15228;SDS011;7717;47.792;12.076;2023-04-29T11:02:54;1.30;;;1.23;;
15228;SDS011;7717;47.792;12.076;2023-04-29T11:05:35;0.87;;;0.87;;
15228;SDS011;7717;47.792;12.076;2023-04-29T11:08:12;2.07;;;1.70;;
15228;SDS011;7717;47.792;12.076;2023-04-29T11:10:40;1.30;;;1.20;;
15228;SDS011;7717;47.792;12.076;2023-04-29T11:15:51;0.77;;;0.60;;
15228;SDS011;7717;47.792;12.076;2023-04-29T11:18:17;0.87;;;0.80;;
15228;SDS011;7717;47.792;12.076;2023-04-29T11:23:26;0.70;;;0.70;;
15228;SDS011;7717;47.792;12.076;2023-04-29T11:25:52;1.77;;;0.90;;
15228;SDS011;7717;47.792;12.076;2023-04-29T11:28:17;1.57;;;0.87;;
15228;SDS011;7717;47.792;12.076;2023-04-29T11:30:42;0.50;;;0.50;;
15228;SDS011;7717;47.792;12.076;2023-04-29T11:33:09;0.53;;;0.40;;
15228;SDS011;7717;47.792;12.076;2023-04-29T11:35:34;1.47;;;0.63;;
15228;SDS011;7717;47.792;12.076;2023-04-29T11:38:03;0.50;;;0.50;;
15228;SDS011;7717;47.792;12.076;2023-04-29T11:40:29;0.50;;;0.50;;
15228;SDS011;7717;47.792;12.076;2023-04-29T11:42:56;0.50;;;0.50;;
15228;SDS011;7717;47.792;12.076;2023-04-29T11:45:21;0.97;;;0.50;;
15228;SDS011;7717;47.792;12.076;2023-04-29T11:47:47;0.70;;;0.53;;
15228;SDS011;7717;47.792;12.076;2023-04-29T11:50:13;1.67;;;0.43;;
15228;SDS011;7717;47.792;12.076;2023-04-29T11:52:41;0.40;;;0.40;;
15228;SDS011;7717;47.792;12.076;2023-04-29T11:55:10;0.82;;;0.45;;
15228;SDS011;7717;47.792;12.076;2023-04-29T11:57:36;0.82;;;0.50;;
15228;SDS011;7717;47.792;12.076;2023-04-29T12:00:01;0.70;;;0.70;;
15228;SDS011;7717;47.792;12.076;2023-04-29T12:02:32;0.55;;;0.55;;
15228;SDS011;7717;47.792;12.076;2023-04-29T12:05:04;0.57;;;0.50;;
15228;SDS011;7717;47.792;12.076;2023-04-29T12:07:30;0.40;;;0.40;;
15228;SDS011;7717;47.792;12.076;2023-04-29T12:09:55;0.88;;;0.65;;
15228;SDS011;7717;47.792;12.076;2023-04-29T12:12:22;1.77;;;0.68;;
15228;SDS011;7717;47.792;12.076;2023-04-29T12:14:47;0.65;;;0.50;;
15228;SDS011;7717;47.792;12.076;2023-04-29T12:17:12;0.47;;;0.47;;
15228;SDS011;7717;47.792;12.076;2023-04-29T12:19:38;0.63;;;0.63;;
15228;SDS011;7717;47.792;12.076;2023-04-29T12:22:03;1.67;;;0.70;;
15228;SDS011;7717;47.792;12.076;2023-04-29T12:24:38;0.75;;;0.68;;
15228;SDS011;7717;47.792;12.076;2023-04-29T12:27:07;2.00;;;1.60;;
15228;SDS011;7717;47.792;12.076;2023-04-29T12:29:36;1.10;;;0.88;;
15228;SDS011;7717;47.792;12.076;2023-04-29T12:32:01;0.80;;;0.80;;
15228;SDS011;7717;47.792;12.076;2023-04-29T12:34:27;1.05;;;0.82;;
15228;SDS011;7717;47.792;12.076;2023-04-29T12:36:57;1.13;;;0.80;;
15228;SDS011;7717;47.792;12.076;2023-04-29T12:39:24;1.00;;;0.80;;
15228;SDS011;7717;47.792;12.076;2023-04-29T12:41:53;2.07;;;0.73;;
15228;SDS011;7717;47.792;12.076;2023-04-29T12:44:18;1.20;;;1.00;;
15228;SDS011;7717;47.792;12.076;2023-04-29T12:46:44;0.90;;;0.90;;
15228;SDS011;7717;47.792;12.076;2023-04-29T12:49:09;1.05;;;0.95;;
15228;SDS011;7717;47.792;12.076;2023-04-29T12:51:35;1.30;;;1.10;;
15228;SDS011;7717;47.792;12.076;2023-04-29T12:54:01;1.02;;;0.88;;
15228;SDS011;7717;47.792;12.076;2023-04-29T12:56:27;0.80;;;0.80;;
15228;SDS011;7717;47.792;12.076;2023-04-29T12:58:53;0.80;;;0.80;;
15228;SDS011;7717;47.792;12.076;2023-04-29T13:01:18;1.15;;;1.00;;
15228;SDS011;7717;47.792;12.076;2023-04-29T13:03:43;2.15;;;0.90;;
15228;SDS011;7717;47.792;12.076;2023-04-29T13:06:08;1.10;;;1.00;;
15228;SDS011;7717;47.792;12.076;2023-04-29T13:08:33;2.78;;;0.80;;
15228;SDS011;7717;47.792;12.076;2023-04-29T13:10:59;1.13;;;1.05;;
15228;SDS011;7717;47.792;12.076;2023-04-29T13:13:24;1.00;;;1.00;;
15228;SDS011;7717;47.792;12.076;2023-04-29T13:15:49;0.90;;;0.90;;
15228;SDS011;7717;47.792;12.076;2023-04-29T13:18:15;1.02;;;1.02;;
15228;SDS011;7717;47.792;12.076;2023-04-29T13:20:40;0.82;;;0.82;;
15228;SDS011;7717;47.792;12.076;2023-04-29T13:23:09;1.85;;;0.93;;
15228;SDS011;7717;47.792;12.076;2023-04-29T13:25:36;1.52;;;1.00;;
15228;SDS011;7717;47.792;12.076;2023-04-29T13:28:04;2.00;;;1.00;;
15228;SDS011;7717;47.792;12.076;2023-04-29T13:30:29;1.05;;;1.05;;
15228;SDS011;7717;47.792;12.076;2023-04-29T13:32:55;1.90;;;0.90;;
15228;SDS011;7717;47.792;12.076;2023-04-29T13:35:20;1.45;;;1.08;;
15228;SDS011;7717;47.792;12.076;2023-04-29T13:37:45;0.82;;;0.82;;
15228;SDS011;7717;47.792;12.076;2023-04-29T13:40:12;0.98;;;0.90;;
15228;SDS011;7717;47.792;12.076;2023-04-29T13:42:37;0.90;;;0.90;;
15228;SDS011;7717;47.792;12.076;2023-04-29T13:45:05;0.82;;;0.82;;
15228;SDS011;7717;47.792;12.076;2023-04-29T13:47:31;1.20;;;1.10;;
15228;SDS011;7717;47.792;12.076;2023-04-29T13:49:56;1.17;;;1.10;;
15228;SDS011;7717;47.792;12.076;2023-04-29T13:52:22;1.37;;;1.20;;
15228;SDS011;7717;47.792;12.076;2023-04-29T13:54:47;1.73;;;1.47;;
15228;SDS011;7717;47.792;12.076;2023-04-29T13:57:12;2.73;;;1.30;;
15228;SDS011;7717;47.792;12.076;2023-04-29T13:59:37;1.37;;;1.10;;
15228;SDS011;7717;47.792;12.076;2023-04-29T14:02:03;1.90;;;1.10;;
15228;SDS011;7717;47.792;12.076;2023-04-29T14:04:28;1.03;;;1.00;;
15228;SDS011;7717;47.792;12.076;2023-04-29T14:06:54;0.60;;;0.60;;
15228;SDS011;7717;47.792;12.076;2023-04-29T14:09:20;0.63;;;0.60;;
15228;SDS011;7717;47.792;12.076;2023-04-29T14:11:46;0.80;;;0.80;;
15228;SDS011;7717;47.792;12.076;2023-04-29T14:14:12;0.57;;;0.57;;
15228;SDS011;7717;47.792;12.076;2023-04-29T14:16:38;0.70;;;0.70;;
15228;SDS011;7717;47.792;12.076;2023-04-29T14:19:03;0.70;;;0.70;;
15228;SDS011;7717;47.792;12.076;2023-04-29T14:21:28;0.90;;;0.60;;
15228;SDS011;7717;47.792;12.076;2023-04-29T14:23:54;0.43;;;0.43;;
15228;SDS011;7717;47.792;12.076;2023-04-29T14:26:22;0.60;;;0.60;;
15228;SDS011;7717;47.792;12.076;2023-04-29T14:28:48;1.00;;;1.00;;
15228;SDS011;7717;47.792;12.076;2023-04-29T14:31:21;2.00;;;1.00;;
15228;SDS011;7717;47.792;12.076;2023-04-29T14:33:47;1.17;;;1.07;;
15228;SDS011;7717;47.792;12.076;2023-04-29T14:36:14;0.87;;;0.80;;
15228;SDS011;7717;47.792;12.076;2023-04-29T14:38:40;2.07;;;0.97;;
15228;SDS011;7717;47.792;12.076;2023-04-29T14:41:05;1.83;;;1.00;;
15228;SDS011;7717;47.792;12.076;2023-04-29T14:43:31;1.03;;;0.87;;
15228;SDS011;7717;47.792;12.076;2023-04-29T14:45:56;0.97;;;0.70;;
15228;SDS011;7717;47.792;12.076;2023-04-29T14:48:22;0.87;;;0.87;;
15228;SDS011;7717;47.792;12.076;2023-04-29T14:50:48;0.90;;;0.90;;
15228;SDS011;7717;47.792;12.076;2023-04-29T14:53:13;0.80;;;0.80;;
15228;SDS011;7717;47.792;12.076;2023-04-29T14:55:39;1.00;;;0.90;;
15228;SDS011;7717;47.792;12.076;2023-04-29T14:58:04;0.63;;;0.63;;
15228;SDS011;7717;47.792;12.076;2023-04-29T15:00:30;2.37;;;1.10;;
15228;SDS011;7717;47.792;12.076;2023-04-29T15:02:55;2.20;;;1.40;;